Tuneiras do Oeste, Brazil
Current Conditions -  °F | °C
As of 6:15 AM on Monday 22 Dec 2014 (Local Time) from SBMG Reporting Station
Light Rain Light Rain  
Wind Chill: 73°   Ceiling: 800
Heat Index: 73°   Visibility: 2.5mi
Dew Point: 72°   Wind: 15mph
Humidity: 94%   Direction: 320°NW
Pressure: NA   Gusts: NA
Location:  23.87°S, 52.88°W
Report Text: SBMG 220815Z 32013KT 4000 -RA BR SCT003 BKN008 OVC025 23/22 Q1009
Loading
Personal Weather Stations






























Interactive Weather Map New forecast layout! Learn more

10-Day Weather Forecast

Advertisements
Track Severe Weather on mobile